Bear Lake, Canada
Current Conditions -  °F | °C
As of 1:00 PM on Friday 19 Dec 2014 (Local Time) from CYYD Reporting Station
Broken Clouds Broken Clouds  
Wind Chill: 26°   Ceiling: 21000
Heat Index: 32°   Visibility: 25mi
Dew Point: 28°   Wind: 7mph
Humidity: 87%   Direction: 140°SE
Pressure: 29.52"   Gusts: NA
Location:  56.2°N, 126.85°W
Report Text: CYYD 192100Z 14006KT 25SM FEW020 SCT050 BKN210 M00/M02 A2952 RMK SC2SC2CI2 SLP015
Loading
Personal Weather Stations






























Interactive Weather Map New forecast layout! Learn more

10-Day Weather Forecast

Advertisements
Track Severe Weather on mobile